sensor_id;sensor_type;location;lat;lon;timestamp;pressure;altitude;pressure_sealevel;temperature;humidity
69766;BME280;57039;48.014;21.384;2022-08-19T00:08:39;100172.22;;;23.47;69.11
69766;BME280;57039;48.014;21.384;2022-08-19T00:18:44;100187.03;;;23.35;70.26
69766;BME280;57039;48.014;21.384;2022-08-19T00:28:47;100163.69;;;23.12;70.46
69766;BME280;57039;48.014;21.384;2022-08-19T00:38:50;100170.03;;;23.51;69.18
69766;BME280;57039;48.014;21.384;2022-08-19T00:48:56;100177.28;;;23.42;69.54
69766;BME280;57039;48.014;21.384;2022-08-19T00:59:01;100180.53;;;23.29;70.24
69766;BME280;57039;48.014;21.384;2022-08-19T01:09:05;100187.62;;;23.14;71.38
69766;BME280;57039;48.014;21.384;2022-08-19T01:19:29;100155.41;;;22.35;74.17
69766;BME280;57039;48.014;21.384;2022-08-19T01:29:46;100197.81;;;22.54;74.52
69766;BME280;57039;48.014;21.384;2022-08-19T01:39:49;100171.75;;;22.48;73.94
69766;BME280;57039;48.014;21.384;2022-08-19T01:49:53;100185.19;;;22.88;72.30
69766;BME280;57039;48.014;21.384;2022-08-19T01:59:56;100190.72;;;22.86;72.42
69766;BME280;57039;48.014;21.384;2022-08-19T02:10:04;100164.69;;;22.72;72.64
69766;BME280;57039;48.014;21.384;2022-08-19T02:20:14;100165.97;;;22.84;72.30
69766;BME280;57039;48.014;21.384;2022-08-19T02:30:17;100131.97;;;22.45;73.18
69766;BME280;57039;48.014;21.384;2022-08-19T02:40:21;100146.97;;;22.63;72.96
69766;BME280;57039;48.014;21.384;2022-08-19T02:50:24;100108.94;;;22.36;73.65
69766;BME280;57039;48.014;21.384;2022-08-19T03:00:28;100138.97;;;22.54;73.72
69766;BME280;57039;48.014;21.384;2022-08-19T03:10:32;100142.66;;;22.53;73.54
69766;BME280;57039;48.014;21.384;2022-08-19T03:20:49;100154.53;;;22.43;74.47
69766;BME280;57039;48.014;21.384;2022-08-19T03:31:04;100176.78;;;22.35;74.93
69766;BME280;57039;48.014;21.384;2022-08-19T03:41:36;100182.81;;;22.29;74.95
69766;BME280;57039;48.014;21.384;2022-08-19T03:51:48;100183.16;;;22.18;75.97
69766;BME280;57039;48.014;21.384;2022-08-19T04:01:55;100192.97;;;22.25;75.72
69766;BME280;57039;48.014;21.384;2022-08-19T04:11:58;100218.72;;;22.34;75.37
69766;BME280;57039;48.014;21.384;2022-08-19T04:22:02;100253.97;;;22.30;75.90
69766;BME280;57039;48.014;21.384;2022-08-19T04:32:06;100255.97;;;22.28;76.17
69766;BME280;57039;48.014;21.384;2022-08-19T04:42:11;100229.91;;;22.30;75.98
69766;BME280;57039;48.014;21.384;2022-08-19T04:52:51;100223.37;;;22.49;74.89
69766;BME280;57039;48.014;21.384;2022-08-19T05:02:58;100246.59;;;22.97;72.95
69766;BME280;57039;48.014;21.384;2022-08-19T05:13:04;100241.28;;;23.29;71.78
69766;BME280;57039;48.014;21.384;2022-08-19T05:23:07;100241.47;;;23.58;71.28
69766;BME280;57039;48.014;21.384;2022-08-19T05:33:23;100242.81;;;23.94;69.53
69766;BME280;57039;48.014;21.384;2022-08-19T05:43:27;100246.31;;;24.17;68.26
69766;BME280;57039;48.014;21.384;2022-08-19T05:53:30;100268.53;;;25.01;66.03
69766;BME280;57039;48.014;21.384;2022-08-19T06:03:33;100236.09;;;25.47;63.36
69766;BME280;57039;48.014;21.384;2022-08-19T06:13:36;100242.06;;;25.79;61.73
69766;BME280;57039;48.014;21.384;2022-08-19T06:23:39;100246.22;;;26.46;59.06
69766;BME280;57039;48.014;21.384;2022-08-19T06:33:44;100260.47;;;26.90;57.76
69766;BME280;57039;48.014;21.384;2022-08-19T06:43:47;100270.19;;;26.91;56.46
69766;BME280;57039;48.014;21.384;2022-08-19T06:53:55;100288.16;;;27.94;53.68
69766;BME280;57039;48.014;21.384;2022-08-19T07:03:58;100295.72;;;28.52;51.87
69766;BME280;57039;48.014;21.384;2022-08-19T07:14:03;100276.59;;;28.80;51.82
69766;BME280;57039;48.014;21.384;2022-08-19T07:24:07;100279.84;;;29.22;50.53
69766;BME280;57039;48.014;21.384;2022-08-19T07:34:11;100281.09;;;29.85;49.15
69766;BME280;57039;48.014;21.384;2022-08-19T07:44:19;100289.44;;;30.21;46.73
69766;BME280;57039;48.014;21.384;2022-08-19T07:54:25;100282.72;;;30.31;48.35
69766;BME280;57039;48.014;21.384;2022-08-19T08:04:29;100273.72;;;31.05;46.89
69766;BME280;57039;48.014;21.384;2022-08-19T08:14:53;100272.97;;;32.02;43.72
69766;BME280;57039;48.014;21.384;2022-08-19T08:25:01;100270.81;;;32.34;42.64
69766;BME280;57039;48.014;21.384;2022-08-19T08:35:11;100266.25;;;32.70;41.40
69766;BME280;57039;48.014;21.384;2022-08-19T08:45:16;100266.00;;;32.83;42.56
69766;BME280;57039;48.014;21.384;2022-08-19T08:55:24;100256.03;;;33.36;41.28
69766;BME280;57039;48.014;21.384;2022-08-19T09:16:01;100224.66;;;33.74;40.08
69766;BME280;57039;48.014;21.384;2022-08-19T09:26:08;100240.22;;;33.61;40.40
69766;BME280;57039;48.014;21.384;2022-08-19T09:36:16;100229.44;;;34.12;38.87
69766;BME280;57039;48.014;21.384;2022-08-19T09:46:36;100244.72;;;34.47;38.82
69766;BME280;57039;48.014;21.384;2022-08-19T09:56:40;100234.22;;;35.33;37.32
69766;BME280;57039;48.014;21.384;2022-08-19T10:06:44;100237.44;;;34.69;36.90
69766;BME280;57039;48.014;21.384;2022-08-19T10:16:48;100214.41;;;35.97;33.88
69766;BME280;57039;48.014;21.384;2022-08-19T10:26:55;100204.62;;;35.47;35.56
69766;BME280;57039;48.014;21.384;2022-08-19T10:37:03;100177.34;;;36.44;32.53
69766;BME280;57039;48.014;21.384;2022-08-19T10:47:13;100163.53;;;37.23;31.15
69766;BME280;57039;48.014;21.384;2022-08-19T10:57:30;100155.84;;;37.10;30.67
69766;BME280;57039;48.014;21.384;2022-08-19T11:07:54;100143.06;;;36.73;29.85
69766;BME280;57039;48.014;21.384;2022-08-19T11:17:57;100153.41;;;37.19;29.54
69766;BME280;57039;48.014;21.384;2022-08-19T11:28:00;100111.28;;;37.40;29.13
69766;BME280;57039;48.014;21.384;2022-08-19T11:38:03;100143.09;;;37.87;28.13
69766;BME280;57039;48.014;21.384;2022-08-19T11:48:11;100143.38;;;37.71;28.49
69766;BME280;57039;48.014;21.384;2022-08-19T11:58:16;100130.75;;;37.85;27.04
69766;BME280;57039;48.014;21.384;2022-08-19T12:08:21;100126.38;;;37.58;27.69
69766;BME280;57039;48.014;21.384;2022-08-19T12:18:24;100116.50;;;37.57;29.22
69766;BME280;57039;48.014;21.384;2022-08-19T12:28:27;100120.59;;;38.26;26.86
69766;BME280;57039;48.014;21.384;2022-08-19T12:38:33;100067.22;;;37.93;26.79
69766;BME280;57039;48.014;21.384;2022-08-19T12:48:38;100087.66;;;38.36;28.98
69766;BME280;57039;48.014;21.384;2022-08-19T12:58:44;100066.91;;;38.15;26.61
69766;BME280;57039;48.014;21.384;2022-08-19T13:08:52;100064.22;;;37.79;26.97
69766;BME280;57039;48.014;21.384;2022-08-19T13:19:01;100064.50;;;37.52;26.85
69766;BME280;57039;48.014;21.384;2022-08-19T13:29:07;100060.91;;;37.36;27.68
69766;BME280;57039;48.014;21.384;2022-08-19T13:39:32;100049.94;;;37.11;28.52
69766;BME280;57039;48.014;21.384;2022-08-19T13:49:36;100039.84;;;37.37;30.20
69766;BME280;57039;48.014;21.384;2022-08-19T13:59:39;100023.91;;;36.15;32.01
69766;BME280;57039;48.014;21.384;2022-08-19T14:09:42;100036.03;;;36.49;31.67
69766;BME280;57039;48.014;21.384;2022-08-19T14:19:47;100025.78;;;36.09;31.87
69766;BME280;57039;48.014;21.384;2022-08-19T14:29:51;100015.72;;;35.40;33.24
69766;BME280;57039;48.014;21.384;2022-08-19T14:39:55;100020.53;;;35.01;34.06
69766;BME280;57039;48.014;21.384;2022-08-19T14:49:58;100011.03;;;35.35;33.15
69766;BME280;57039;48.014;21.384;2022-08-19T15:00:05;100012.50;;;34.89;33.54
69766;BME280;57039;48.014;21.384;2022-08-19T15:10:11;100000.25;;;34.64;32.77
69766;BME280;57039;48.014;21.384;2022-08-19T15:20:19;100004.84;;;34.64;33.34
69766;BME280;57039;48.014;21.384;2022-08-19T15:30:26;99990.75;;;34.23;34.37
69766;BME280;57039;48.014;21.384;2022-08-19T15:40:29;99989.03;;;34.17;35.46
69766;BME280;57039;48.014;21.384;2022-08-19T15:50:33;99979.47;;;34.14;35.58
69766;BME280;57039;48.014;21.384;2022-08-19T16:00:37;99959.62;;;33.80;37.22
69766;BME280;57039;48.014;21.384;2022-08-19T16:10:59;99938.84;;;33.52;38.06
69766;BME280;57039;48.014;21.384;2022-08-19T16:21:04;99960.59;;;33.18;39.25
69766;BME280;57039;48.014;21.384;2022-08-19T16:31:09;99947.09;;;33.06;39.75
69766;BME280;57039;48.014;21.384;2022-08-19T16:41:13;99954.03;;;32.85;40.39
69766;BME280;57039;48.014;21.384;2022-08-19T16:51:16;99963.59;;;32.59;41.83
69766;BME280;57039;48.014;21.384;2022-08-19T17:01:20;99949.06;;;32.25;42.15
69766;BME280;57039;48.014;21.384;2022-08-19T17:11:27;99956.91;;;31.86;42.91
69766;BME280;57039;48.014;21.384;2022-08-19T17:21:35;99967.91;;;31.44;43.94
69766;BME280;57039;48.014;21.384;2022-08-19T17:31:45;99961.81;;;31.07;45.42
69766;BME280;57039;48.014;21.384;2022-08-19T17:41:48;99964.72;;;30.75;45.99
69766;BME280;57039;48.014;21.384;2022-08-19T17:51:52;99962.97;;;30.20;47.95
69766;BME280;57039;48.014;21.384;2022-08-19T18:01:55;99968.34;;;30.02;47.81
69766;BME280;57039;48.014;21.384;2022-08-19T18:11:59;99978.25;;;29.21;50.78
69766;BME280;57039;48.014;21.384;2022-08-19T18:22:03;99991.91;;;28.95;52.41
69766;BME280;57039;48.014;21.384;2022-08-19T18:32:09;99988.66;;;28.79;52.31
69766;BME280;57039;48.014;21.384;2022-08-19T18:42:26;99982.06;;;28.68;53.35
69766;BME280;57039;48.014;21.384;2022-08-19T18:52:48;99986.78;;;28.41;54.19
69766;BME280;57039;48.014;21.384;2022-08-19T19:02:51;99980.66;;;28.08;55.14
69766;BME280;57039;48.014;21.384;2022-08-19T19:12:56;99974.81;;;28.11;54.68
69766;BME280;57039;48.014;21.384;2022-08-19T19:22:59;99973.84;;;27.92;55.29
69766;BME280;57039;48.014;21.384;2022-08-19T19:33:03;99984.84;;;27.70;54.82
69766;BME280;57039;48.014;21.384;2022-08-19T19:43:07;99989.81;;;27.60;54.67
69766;BME280;57039;48.014;21.384;2022-08-19T19:53:10;99990.59;;;27.01;56.27
69766;BME280;57039;48.014;21.384;2022-08-19T20:03:14;99995.63;;;26.49;58.70
69766;BME280;57039;48.014;21.384;2022-08-19T20:13:22;99975.41;;;26.18;59.81
69766;BME280;57039;48.014;21.384;2022-08-19T20:23:25;99999.59;;;26.18;60.33
69766;BME280;57039;48.014;21.384;2022-08-19T20:33:28;100024.34;;;26.07;60.80
69766;BME280;57039;48.014;21.384;2022-08-19T20:43:33;100013.22;;;26.17;60.57
69766;BME280;57039;48.014;21.384;2022-08-19T20:53:37;100030.69;;;25.71;63.09
69766;BME280;57039;48.014;21.384;2022-08-19T21:03:41;100034.03;;;25.73;63.22
69766;BME280;57039;48.014;21.384;2022-08-19T21:13:45;100030.72;;;25.78;63.46
69766;BME280;57039;48.014;21.384;2022-08-19T21:23:48;100030.03;;;25.69;63.87
69766;BME280;57039;48.014;21.384;2022-08-19T21:33:51;100054.25;;;25.26;66.74
69766;BME280;57039;48.014;21.384;2022-08-19T21:43:54;100048.19;;;25.61;65.09
69766;BME280;57039;48.014;21.384;2022-08-19T21:53:57;100022.91;;;25.55;63.89
69766;BME280;57039;48.014;21.384;2022-08-19T22:04:01;100038.16;;;25.26;65.52
69766;BME280;57039;48.014;21.384;2022-08-19T22:14:04;100046.72;;;25.00;65.52
69766;BME280;57039;48.014;21.384;2022-08-19T22:24:09;100043.87;;;25.02;64.87
69766;BME280;57039;48.014;21.384;2022-08-19T22:34:12;100053.94;;;24.64;66.84
69766;BME280;57039;48.014;21.384;2022-08-19T22:44:15;100067.78;;;24.37;67.35
69766;BME280;57039;48.014;21.384;2022-08-19T22:54:19;100071.88;;;24.78;64.76
69766;BME280;57039;48.014;21.384;2022-08-19T23:04:22;100077.81;;;24.44;66.54
69766;BME280;57039;48.014;21.384;2022-08-19T23:14:25;100085.47;;;24.47;65.53
69766;BME280;57039;48.014;21.384;2022-08-19T23:24:28;100069.66;;;24.52;62.11
69766;BME280;57039;48.014;21.384;2022-08-19T23:34:31;100051.06;;;24.35;61.50
69766;BME280;57039;48.014;21.384;2022-08-19T23:44:34;100032.69;;;24.47;60.58
69766;BME280;57039;48.014;21.384;2022-08-19T23:54:53;100037.00;;;24.63;59.81
